sensor_id;sensor_type;location;lat;lon;timestamp;pressure;altitude;pressure_sealevel;temperature;humidity
28181;BME280;15464;50.988;10.318;2023-05-01T00:02:07;99272.47;;;5.33;71.27
28181;BME280;15464;50.988;10.318;2023-05-01T00:04:34;99277.16;;;5.28;70.31
28181;BME280;15464;50.988;10.318;2023-05-01T00:07:01;99268.25;;;5.31;71.70
28181;BME280;15464;50.988;10.318;2023-05-01T00:09:28;99261.75;;;5.22;71.90
28181;BME280;15464;50.988;10.318;2023-05-01T00:11:55;99270.75;;;5.18;72.15
28181;BME280;15464;50.988;10.318;2023-05-01T00:14:21;99266.59;;;5.14;71.54
28181;BME280;15464;50.988;10.318;2023-05-01T00:16:48;99264.91;;;5.13;71.89
28181;BME280;15464;50.988;10.318;2023-05-01T00:19:15;99258.13;;;5.09;72.59
28181;BME280;15464;50.988;10.318;2023-05-01T00:21:47;99265.25;;;5.07;72.26
28181;BME280;15464;50.988;10.318;2023-05-01T00:24:16;99258.50;;;5.03;72.14
28181;BME280;15464;50.988;10.318;2023-05-01T00:26:43;99264.69;;;5.02;72.43
28181;BME280;15464;50.988;10.318;2023-05-01T00:29:10;99265.81;;;4.98;72.28
28181;BME280;15464;50.988;10.318;2023-05-01T00:31:37;99265.03;;;4.96;72.66
28181;BME280;15464;50.988;10.318;2023-05-01T00:34:04;99246.22;;;4.87;73.13
28181;BME280;15464;50.988;10.318;2023-05-01T00:36:31;99245.28;;;4.88;72.30
28181;BME280;15464;50.988;10.318;2023-05-01T00:38:58;99252.31;;;4.88;72.28
28181;BME280;15464;50.988;10.318;2023-05-01T00:41:25;99249.69;;;4.88;72.75
28181;BME280;15464;50.988;10.318;2023-05-01T00:43:51;99240.97;;;4.87;72.66
28181;BME280;15464;50.988;10.318;2023-05-01T00:46:18;99240.03;;;4.88;72.74
28181;BME280;15464;50.988;10.318;2023-05-01T00:48:45;99238.34;;;4.87;73.48
28181;BME280;15464;50.988;10.318;2023-05-01T00:51:11;99231.56;;;4.83;72.57
28181;BME280;15464;50.988;10.318;2023-05-01T00:53:39;99230.06;;;4.79;72.63
28181;BME280;15464;50.988;10.318;2023-05-01T00:56:10;99224.31;;;4.73;73.00
28181;BME280;15464;50.988;10.318;2023-05-01T00:58:37;99227.78;;;4.73;73.83
28181;BME280;15464;50.988;10.318;2023-05-01T01:01:04;99220.06;;;4.70;73.64
28181;BME280;15464;50.988;10.318;2023-05-01T01:03:31;99221.19;;;4.66;73.72
28181;BME280;15464;50.988;10.318;2023-05-01T01:06:09;99217.88;;;4.63;74.02
28181;BME280;15464;50.988;10.318;2023-05-01T01:08:43;99212.63;;;4.63;73.63
28181;BME280;15464;50.988;10.318;2023-05-01T01:14:02;99207.47;;;4.61;74.84
28181;BME280;15464;50.988;10.318;2023-05-01T01:16:45;99209.34;;;4.59;73.96
28181;BME280;15464;50.988;10.318;2023-05-01T01:19:48;99199.84;;;4.57;74.03
28181;BME280;15464;50.988;10.318;2023-05-01T01:22:25;99202.38;;;4.58;73.89
28181;BME280;15464;50.988;10.318;2023-05-01T01:28:01;99196.34;;;4.56;75.87
28181;BME280;15464;50.988;10.318;2023-05-01T01:33:47;99189.44;;;4.55;74.76
28181;BME280;15464;50.988;10.318;2023-05-01T01:36:19;99189.44;;;4.55;75.59
28181;BME280;15464;50.988;10.318;2023-05-01T01:38:57;99185.19;;;4.53;75.15
28181;BME280;15464;50.988;10.318;2023-05-01T01:41:32;99186.31;;;4.49;75.71
28181;BME280;15464;50.988;10.318;2023-05-01T01:44:17;99186.38;;;4.47;75.88
28181;BME280;15464;50.988;10.318;2023-05-01T01:46:47;99177.75;;;4.45;76.55
28181;BME280;15464;50.988;10.318;2023-05-01T01:49:19;99175.97;;;4.45;76.58
28181;BME280;15464;50.988;10.318;2023-05-01T01:51:48;99172.56;;;4.43;76.35
28181;BME280;15464;50.988;10.318;2023-05-01T01:54:19;99173.59;;;4.41;75.82
28181;BME280;15464;50.988;10.318;2023-05-01T01:56:48;99177.25;;;4.38;75.27
28181;BME280;15464;50.988;10.318;2023-05-01T01:59:17;99166.94;;;4.35;75.13
28181;BME280;15464;50.988;10.318;2023-05-01T02:01:45;99167.78;;;4.36;75.18
28181;BME280;15464;50.988;10.318;2023-05-01T02:04:13;99168.97;;;4.30;76.42
28181;BME280;15464;50.988;10.318;2023-05-01T02:06:43;99163.78;;;4.29;76.29
28181;BME280;15464;50.988;10.318;2023-05-01T02:09:11;99166.84;;;4.21;76.87
28181;BME280;15464;50.988;10.318;2023-05-01T02:11:38;99152.03;;;4.20;76.21
28181;BME280;15464;50.988;10.318;2023-05-01T02:14:06;99152.03;;;4.20;75.95
28181;BME280;15464;50.988;10.318;2023-05-01T02:16:35;99152.22;;;4.17;76.85
28181;BME280;15464;50.988;10.318;2023-05-01T02:19:03;99153.63;;;4.23;77.96
28181;BME280;15464;50.988;10.318;2023-05-01T02:21:32;99149.91;;;4.27;78.16
28181;BME280;15464;50.988;10.318;2023-05-01T02:24:00;99150.66;;;4.29;78.51
28181;BME280;15464;50.988;10.318;2023-05-01T02:26:28;99142.88;;;4.27;78.34
28181;BME280;15464;50.988;10.318;2023-05-01T02:28:55;99137.13;;;4.21;78.75
28181;BME280;15464;50.988;10.318;2023-05-01T02:31:22;99137.13;;;4.21;78.99
28181;BME280;15464;50.988;10.318;2023-05-01T02:33:48;99127.66;;;4.18;78.76
28181;BME280;15464;50.988;10.318;2023-05-01T02:36:15;99130.38;;;4.17;78.69
28181;BME280;15464;50.988;10.318;2023-05-01T02:38:42;99134.56;;;4.19;78.05
28181;BME280;15464;50.988;10.318;2023-05-01T02:41:09;99122.50;;;4.17;78.70
28181;BME280;15464;50.988;10.318;2023-05-01T02:43:38;99132.28;;;4.13;78.32
28181;BME280;15464;50.988;10.318;2023-05-01T02:46:07;99128.81;;;4.13;78.28
28181;BME280;15464;50.988;10.318;2023-05-01T02:48:36;99127.31;;;4.09;78.90
28181;BME280;15464;50.988;10.318;2023-05-01T02:51:04;99118.50;;;4.10;79.61
28181;BME280;15464;50.988;10.318;2023-05-01T02:53:31;99116.16;;;4.05;79.38
28181;BME280;15464;50.988;10.318;2023-05-01T02:55:58;99116.56;;;3.97;79.89
28181;BME280;15464;50.988;10.318;2023-05-01T02:58:29;99111.59;;;3.93;79.75
28181;BME280;15464;50.988;10.318;2023-05-01T03:00:57;99110.41;;;3.98;79.57
28181;BME280;15464;50.988;10.318;2023-05-01T03:03:24;99110.97;;;4.03;79.80
28181;BME280;15464;50.988;10.318;2023-05-01T03:05:51;99105.88;;;4.00;79.77
28181;BME280;15464;50.988;10.318;2023-05-01T03:08:18;99096.25;;;4.01;79.42
28181;BME280;15464;50.988;10.318;2023-05-01T03:10:45;99096.50;;;3.96;79.15
28181;BME280;15464;50.988;10.318;2023-05-01T03:13:11;99100.13;;;3.94;79.89
28181;BME280;15464;50.988;10.318;2023-05-01T03:15:38;99099.47;;;3.90;79.95
28181;BME280;15464;50.988;10.318;2023-05-01T03:18:05;99095.34;;;3.86;79.88
28181;BME280;15464;50.988;10.318;2023-05-01T03:20:32;99095.16;;;3.89;79.76
28181;BME280;15464;50.988;10.318;2023-05-01T03:22:59;99101.94;;;3.93;80.71
28181;BME280;15464;50.988;10.318;2023-05-01T03:25:26;99089.84;;;3.91;80.37
28181;BME280;15464;50.988;10.318;2023-05-01T03:27:53;99083.56;;;3.93;80.54
28181;BME280;15464;50.988;10.318;2023-05-01T03:30:20;99077.56;;;3.91;80.64
28181;BME280;15464;50.988;10.318;2023-05-01T03:32:47;99085.59;;;3.88;80.90
28181;BME280;15464;50.988;10.318;2023-05-01T03:35:14;99074.50;;;3.83;80.72
28181;BME280;15464;50.988;10.318;2023-05-01T03:37:41;99079.94;;;3.80;80.83
28181;BME280;15464;50.988;10.318;2023-05-01T03:40:08;99082.72;;;3.77;80.52
28181;BME280;15464;50.988;10.318;2023-05-01T03:42:34;99075.19;;;3.71;80.18
28181;BME280;15464;50.988;10.318;2023-05-01T03:45:01;99074.53;;;3.68;80.27
28181;BME280;15464;50.988;10.318;2023-05-01T03:47:28;99081.56;;;3.67;80.72
28181;BME280;15464;50.988;10.318;2023-05-01T03:49:55;99071.13;;;3.65;80.31
28181;BME280;15464;50.988;10.318;2023-05-01T03:52:22;99069.63;;;3.61;79.86
28181;BME280;15464;50.988;10.318;2023-05-01T03:54:49;99071.28;;;3.62;80.89
28181;BME280;15464;50.988;10.318;2023-05-01T03:57:15;99066.31;;;3.58;81.02
28181;BME280;15464;50.988;10.318;2023-05-01T03:59:42;99061.31;;;3.53;80.63
28181;BME280;15464;50.988;10.318;2023-05-01T04:02:09;99063.09;;;3.53;80.36
28181;BME280;15464;50.988;10.318;2023-05-01T04:04:36;99060.47;;;3.53;80.42
28181;BME280;15464;50.988;10.318;2023-05-01T04:07:03;99068.50;;;3.50;80.73
28181;BME280;15464;50.988;10.318;2023-05-01T04:09:30;99066.81;;;3.49;80.32
28181;BME280;15464;50.988;10.318;2023-05-01T04:11:57;99062.50;;;3.48;79.80
28181;BME280;15464;50.988;10.318;2023-05-01T04:14:23;99063.50;;;3.45;80.69
28181;BME280;15464;50.988;10.318;2023-05-01T04:16:50;99063.44;;;3.47;80.24
28181;BME280;15464;50.988;10.318;2023-05-01T04:19:17;99069.44;;;3.49;80.25
28181;BME280;15464;50.988;10.318;2023-05-01T04:21:45;99067.75;;;3.48;81.02
28181;BME280;15464;50.988;10.318;2023-05-01T04:24:12;99063.25;;;3.50;80.78
28181;BME280;15464;50.988;10.318;2023-05-01T04:29:13;99059.97;;;3.62;82.06
28181;BME280;15464;50.988;10.318;2023-05-01T04:31:40;99057.50;;;3.59;81.85
28181;BME280;15464;50.988;10.318;2023-05-01T04:34:08;99056.94;;;3.54;81.60
28181;BME280;15464;50.988;10.318;2023-05-01T04:36:35;99068.94;;;3.58;82.68
28181;BME280;15464;50.988;10.318;2023-05-01T04:39:02;99063.34;;;3.64;82.06
28181;BME280;15464;50.988;10.318;2023-05-01T04:41:29;99061.66;;;3.63;82.42
28181;BME280;15464;50.988;10.318;2023-05-01T04:43:55;99064.88;;;3.68;81.17
28181;BME280;15464;50.988;10.318;2023-05-01T04:46:22;99060.31;;;3.72;82.00
28181;BME280;15464;50.988;10.318;2023-05-01T04:48:49;99060.81;;;3.78;82.67
28181;BME280;15464;50.988;10.318;2023-05-01T04:51:15;99058.50;;;3.88;83.50
28181;BME280;15464;50.988;10.318;2023-05-01T04:53:42;99062.41;;;3.96;83.88
28181;BME280;15464;50.988;10.318;2023-05-01T04:56:09;99063.75;;;4.03;84.29
28181;BME280;15464;50.988;10.318;2023-05-01T04:58:36;99059.75;;;4.12;84.35
28181;BME280;15464;50.988;10.318;2023-05-01T05:01:02;99061.84;;;4.21;84.25
28181;BME280;15464;50.988;10.318;2023-05-01T05:03:29;99061.75;;;4.23;84.95
28181;BME280;15464;50.988;10.318;2023-05-01T05:05:56;99065.13;;;4.25;84.36
28181;BME280;15464;50.988;10.318;2023-05-01T05:08:22;99066.25;;;4.21;84.99
28181;BME280;15464;50.988;10.318;2023-05-01T05:10:55;99064.78;;;4.31;85.14
28181;BME280;15464;50.988;10.318;2023-05-01T05:13:22;99067.63;;;4.42;84.62
28181;BME280;15464;50.988;10.318;2023-05-01T05:15:48;99065.66;;;4.45;82.89
28181;BME280;15464;50.988;10.318;2023-05-01T05:18:15;99057.13;;;4.56;83.10
28181;BME280;15464;50.988;10.318;2023-05-01T05:20:42;99061.94;;;4.64;82.98
28181;BME280;15464;50.988;10.318;2023-05-01T05:23:09;99059.72;;;4.72;83.26
28181;BME280;15464;50.988;10.318;2023-05-01T05:25:35;99058.34;;;4.80;83.31
28181;BME280;15464;50.988;10.318;2023-05-01T05:28:03;99053.56;;;4.87;81.96
28181;BME280;15464;50.988;10.318;2023-05-01T05:30:29;99047.25;;;4.90;80.88
28181;BME280;15464;50.988;10.318;2023-05-01T05:32:56;99054.00;;;4.94;80.47
28181;BME280;15464;50.988;10.318;2023-05-01T05:35:23;99048.13;;;5.04;80.84
28181;BME280;15464;50.988;10.318;2023-05-01T05:37:50;99048.47;;;5.12;81.14
28181;BME280;15464;50.988;10.318;2023-05-01T05:40:16;99048.28;;;5.15;81.07
28181;BME280;15464;50.988;10.318;2023-05-01T05:42:44;99050.91;;;5.30;81.22
28181;BME280;15464;50.988;10.318;2023-05-01T05:45:11;99050.16;;;5.42;81.26
28181;BME280;15464;50.988;10.318;2023-05-01T05:47:38;99049.47;;;5.52;81.19
28181;BME280;15464;50.988;10.318;2023-05-01T05:50:05;99043.63;;;5.61;81.12
28181;BME280;15464;50.988;10.318;2023-05-01T05:52:32;99044.91;;;5.68;81.23
28181;BME280;15464;50.988;10.318;2023-05-01T05:54:59;99041.78;;;5.76;80.76
28181;BME280;15464;50.988;10.318;2023-05-01T05:57:26;99035.69;;;5.90;79.81
28181;BME280;15464;50.988;10.318;2023-05-01T05:59:53;99036.56;;;6.03;79.22
28181;BME280;15464;50.988;10.318;2023-05-01T06:02:20;99030.06;;;6.08;78.54
28181;BME280;15464;50.988;10.318;2023-05-01T06:04:47;99029.06;;;6.24;77.79
28181;BME280;15464;50.988;10.318;2023-05-01T06:07:14;99019.59;;;6.34;77.99
28181;BME280;15464;50.988;10.318;2023-05-01T06:09:41;99028.25;;;6.48;77.54
28181;BME280;15464;50.988;10.318;2023-05-01T06:12:07;99027.09;;;6.53;77.20
28181;BME280;15464;50.988;10.318;2023-05-01T06:14:34;99028.06;;;6.64;76.83
28181;BME280;15464;50.988;10.318;2023-05-01T06:17:01;99023.44;;;6.68;76.49
28181;BME280;15464;50.988;10.318;2023-05-01T06:19:27;99018.69;;;6.73;75.45
28181;BME280;15464;50.988;10.318;2023-05-01T06:21:54;99016.78;;;6.87;74.91
28181;BME280;15464;50.988;10.318;2023-05-01T06:24:21;99015.63;;;7.04;74.02
28181;BME280;15464;50.988;10.318;2023-05-01T06:26:47;99012.44;;;7.12;74.61
28181;BME280;15464;50.988;10.318;2023-05-01T06:29:14;99011.34;;;7.27;74.77
28181;BME280;15464;50.988;10.318;2023-05-01T06:31:41;99015.75;;;7.39;74.17
28181;BME280;15464;50.988;10.318;2023-05-01T06:34:08;99009.81;;;7.61;74.53
28181;BME280;15464;50.988;10.318;2023-05-01T06:36:35;99005.31;;;7.74;70.65
28181;BME280;15464;50.988;10.318;2023-05-01T06:39:02;99006.81;;;7.89;71.27
28181;BME280;15464;50.988;10.318;2023-05-01T06:41:28;99006.94;;;8.12;72.17
28181;BME280;15464;50.988;10.318;2023-05-01T06:43:55;99003.81;;;8.30;72.05
28181;BME280;15464;50.988;10.318;2023-05-01T06:46:22;99000.72;;;8.47;71.04
28181;BME280;15464;50.988;10.318;2023-05-01T06:48:48;99009.03;;;8.65;70.86
28181;BME280;15464;50.988;10.318;2023-05-01T06:51:15;99003.41;;;8.81;70.74
28181;BME280;15464;50.988;10.318;2023-05-01T06:53:42;99002.34;;;9.06;65.84
28181;BME280;15464;50.988;10.318;2023-05-01T06:56:09;99002.22;;;9.18;66.37
28181;BME280;15464;50.988;10.318;2023-05-01T06:58:35;99003.66;;;9.34;64.69
28181;BME280;15464;50.988;10.318;2023-05-01T07:01:02;98989.34;;;9.47;63.22
28181;BME280;15464;50.988;10.318;2023-05-01T07:03:29;98996.53;;;9.56;62.85
28181;BME280;15464;50.988;10.318;2023-05-01T07:05:56;98987.94;;;9.86;63.84
28181;BME280;15464;50.988;10.318;2023-05-01T07:08:23;98983.09;;;10.12;61.31
28181;BME280;15464;50.988;10.318;2023-05-01T07:10:50;98973.72;;;10.19;61.90
28181;BME280;15464;50.988;10.318;2023-05-01T07:13:16;98976.16;;;10.43;60.26
28181;BME280;15464;50.988;10.318;2023-05-01T07:15:43;98973.16;;;10.57;59.40
28181;BME280;15464;50.988;10.318;2023-05-01T07:18:10;98968.81;;;10.77;58.24
28181;BME280;15464;50.988;10.318;2023-05-01T07:20:38;98961.44;;;11.11;61.69
28181;BME280;15464;50.988;10.318;2023-05-01T07:23:04;98958.44;;;11.35;61.47
28181;BME280;15464;50.988;10.318;2023-05-01T07:25:33;98962.41;;;11.69;58.87
28181;BME280;15464;50.988;10.318;2023-05-01T07:27:59;98955.50;;;11.97;55.46
28181;BME280;15464;50.988;10.318;2023-05-01T07:30:28;98947.66;;;12.15;57.61
28181;BME280;15464;50.988;10.318;2023-05-01T07:32:56;98932.56;;;12.05;56.81
28181;BME280;15464;50.988;10.318;2023-05-01T07:35:23;98940.53;;;12.05;54.86
28181;BME280;15464;50.988;10.318;2023-05-01T07:37:51;98940.63;;;12.33;57.34
28181;BME280;15464;50.988;10.318;2023-05-01T07:40:18;98936.09;;;12.62;56.58
28181;BME280;15464;50.988;10.318;2023-05-01T07:42:45;98940.28;;;12.65;55.82
28181;BME280;15464;50.988;10.318;2023-05-01T07:45:11;98937.38;;;12.95;54.42
28181;BME280;15464;50.988;10.318;2023-05-01T07:47:38;98938.44;;;13.12;53.19
28181;BME280;15464;50.988;10.318;2023-05-01T07:50:09;98930.34;;;13.13;53.48
28181;BME280;15464;50.988;10.318;2023-05-01T07:52:37;98927.63;;;13.23;53.81
28181;BME280;15464;50.988;10.318;2023-05-01T07:55:04;98920.13;;;13.36;55.67
28181;BME280;15464;50.988;10.318;2023-05-01T07:57:31;98913.00;;;13.54;56.63
28181;BME280;15464;50.988;10.318;2023-05-01T08:00:01;98918.88;;;12.93;52.77
28181;BME280;15464;50.988;10.318;2023-05-01T08:02:28;98915.09;;;13.33;55.08
28181;BME280;15464;50.988;10.318;2023-05-01T08:04:54;98913.41;;;13.77;54.44
28181;BME280;15464;50.988;10.318;2023-05-01T08:07:21;98894.50;;;14.06;54.17
28181;BME280;15464;50.988;10.318;2023-05-01T08:09:48;98900.03;;;14.30;53.60
28181;BME280;15464;50.988;10.318;2023-05-01T08:12:15;98898.03;;;14.32;53.13
28181;BME280;15464;50.988;10.318;2023-05-01T08:14:41;98893.25;;;14.62;53.73
28181;BME280;15464;50.988;10.318;2023-05-01T08:17:08;98891.19;;;14.81;53.64
28181;BME280;15464;50.988;10.318;2023-05-01T08:19:35;98882.63;;;14.70;52.59
28181;BME280;15464;50.988;10.318;2023-05-01T08:22:01;98888.44;;;14.39;50.93
28181;BME280;15464;50.988;10.318;2023-05-01T08:24:28;98882.38;;;13.94;53.32
28181;BME280;15464;50.988;10.318;2023-05-01T08:26:55;98879.44;;;14.40;52.88
28181;BME280;15464;50.988;10.318;2023-05-01T08:29:22;98880.50;;;14.47;50.81
28181;BME280;15464;50.988;10.318;2023-05-01T08:31:49;98885.50;;;14.50;52.04
28181;BME280;15464;50.988;10.318;2023-05-01T08:34:15;98880.59;;;14.38;52.69
28181;BME280;15464;50.988;10.318;2023-05-01T08:36:42;98874.41;;;14.37;53.41
28181;BME280;15464;50.988;10.318;2023-05-01T08:39:09;98876.09;;;14.64;53.80
28181;BME280;15464;50.988;10.318;2023-05-01T08:41:36;98871.91;;;14.96;54.40
28181;BME280;15464;50.988;10.318;2023-05-01T08:44:03;98871.63;;;15.07;52.09
28181;BME280;15464;50.988;10.318;2023-05-01T08:49:01;98876.63;;;14.68;49.45
28181;BME280;15464;50.988;10.318;2023-05-01T08:51:31;98873.56;;;14.63;50.35
28181;BME280;15464;50.988;10.318;2023-05-01T08:54:00;98874.34;;;14.81;52.12
28181;BME280;15464;50.988;10.318;2023-05-01T08:56:28;98874.19;;;14.82;53.35
28181;BME280;15464;50.988;10.318;2023-05-01T08:58:57;98863.88;;;14.53;51.84
28181;BME280;15464;50.988;10.318;2023-05-01T09:01:27;98863.88;;;14.53;52.44
28181;BME280;15464;50.988;10.318;2023-05-01T09:03:55;98865.91;;;14.60;52.18
28181;BME280;15464;50.988;10.318;2023-05-01T09:06:24;98862.59;;;14.66;53.17
28181;BME280;15464;50.988;10.318;2023-05-01T09:08:54;98856.72;;;14.96;53.83
28181;BME280;15464;50.988;10.318;2023-05-01T09:11:22;98853.91;;;15.06;52.64
28181;BME280;15464;50.988;10.318;2023-05-01T09:13:50;98848.16;;;15.26;51.96
28181;BME280;15464;50.988;10.318;2023-05-01T09:16:17;98845.09;;;15.13;50.60
28181;BME280;15464;50.988;10.318;2023-05-01T09:18:45;98844.91;;;14.99;49.85
28181;BME280;15464;50.988;10.318;2023-05-01T09:21:12;98844.72;;;15.00;50.39
28181;BME280;15464;50.988;10.318;2023-05-01T09:23:39;98842.75;;;15.10;50.16
28181;BME280;15464;50.988;10.318;2023-05-01T09:26:06;98840.41;;;15.07;50.48
28181;BME280;15464;50.988;10.318;2023-05-01T09:28:43;98842.41;;;15.05;50.21
28181;BME280;15464;50.988;10.318;2023-05-01T09:33:51;98838.34;;;14.93;50.12
28181;BME280;15464;50.988;10.318;2023-05-01T09:36:19;98833.19;;;15.00;49.52
28181;BME280;15464;50.988;10.318;2023-05-01T09:38:46;98832.06;;;15.18;49.28
28181;BME280;15464;50.988;10.318;2023-05-01T09:41:13;98823.09;;;15.27;48.14
28181;BME280;15464;50.988;10.318;2023-05-01T09:43:40;98820.44;;;15.44;49.55
28181;BME280;15464;50.988;10.318;2023-05-01T09:46:08;98822.84;;;15.55;46.84
28181;BME280;15464;50.988;10.318;2023-05-01T09:48:36;98817.81;;;15.68;47.32
28181;BME280;15464;50.988;10.318;2023-05-01T09:53:45;98819.84;;;15.58;48.46
28181;BME280;15464;50.988;10.318;2023-05-01T09:56:12;98821.88;;;15.80;48.81
28181;BME280;15464;50.988;10.318;2023-05-01T09:58:40;98808.97;;;16.08;48.74
28181;BME280;15464;50.988;10.318;2023-05-01T10:01:06;98820.16;;;15.87;46.14
28181;BME280;15464;50.988;10.318;2023-05-01T10:03:34;98814.53;;;15.74;45.43
28181;BME280;15464;50.988;10.318;2023-05-01T10:06:01;98799.47;;;15.97;46.09
28181;BME280;15464;50.988;10.318;2023-05-01T10:08:48;98802.78;;;16.07;45.69
28181;BME280;15464;50.988;10.318;2023-05-01T10:11:15;98804.44;;;16.17;45.35
28181;BME280;15464;50.988;10.318;2023-05-01T10:13:42;98806.78;;;16.20;44.89
28181;BME280;15464;50.988;10.318;2023-05-01T10:16:29;98798.75;;;16.28;44.71
28181;BME280;15464;50.988;10.318;2023-05-01T10:18:56;98796.69;;;16.46;45.37
28181;BME280;15464;50.988;10.318;2023-05-01T10:21:24;98795.84;;;16.45;44.41
28181;BME280;15464;50.988;10.318;2023-05-01T10:23:51;98788.97;;;16.43;43.41
28181;BME280;15464;50.988;10.318;2023-05-01T10:26:18;98787.63;;;16.63;44.58
28181;BME280;15464;50.988;10.318;2023-05-01T10:28:47;98783.75;;;16.58;44.26
28181;BME280;15464;50.988;10.318;2023-05-01T10:31:15;98781.59;;;16.53;44.92
28181;BME280;15464;50.988;10.318;2023-05-01T10:33:43;98785.59;;;16.65;44.95
28181;BME280;15464;50.988;10.318;2023-05-01T10:36:14;98787.63;;;16.63;44.59
28181;BME280;15464;50.988;10.318;2023-05-01T10:38:43;98788.63;;;16.54;45.34
28181;BME280;15464;50.988;10.318;2023-05-01T10:41:14;98788.28;;;16.57;43.80
28181;BME280;15464;50.988;10.318;2023-05-01T10:43:42;98770.47;;;16.80;43.45
28181;BME280;15464;50.988;10.318;2023-05-01T10:51:24;98760.41;;;17.13;45.48
28181;BME280;15464;50.988;10.318;2023-05-01T10:56:40;98755.53;;;17.17;44.44
28181;BME280;15464;50.988;10.318;2023-05-01T10:59:08;98753.56;;;17.56;46.75
28181;BME280;15464;50.988;10.318;2023-05-01T11:01:40;98747.84;;;17.59;44.38
28181;BME280;15464;50.988;10.318;2023-05-01T11:12:47;98746.16;;;17.81;39.34
28181;BME280;15464;50.988;10.318;2023-05-01T11:15:03;98742.06;;;18.08;40.12
28181;BME280;15464;50.988;10.318;2023-05-01T11:23:02;98727.38;;;17.66;40.03
28181;BME280;15464;50.988;10.318;2023-05-01T11:25:29;98726.28;;;17.76;41.13
28181;BME280;15464;50.988;10.318;2023-05-01T11:27:58;98726.56;;;17.81;40.32
28181;BME280;15464;50.988;10.318;2023-05-01T11:30:35;98723.00;;;18.03;44.16
28181;BME280;15464;50.988;10.318;2023-05-01T11:33:02;98724.94;;;18.09;41.89
28181;BME280;15464;50.988;10.318;2023-05-01T11:35:30;98721.97;;;18.19;44.53
28181;BME280;15464;50.988;10.318;2023-05-01T11:37:57;98724.88;;;18.17;44.13
28181;BME280;15464;50.988;10.318;2023-05-01T11:40:25;98713.84;;;18.41;40.24
28181;BME280;15464;50.988;10.318;2023-05-01T11:43:03;98715.41;;;18.21;38.28
28181;BME280;15464;50.988;10.318;2023-05-01T11:45:30;98713.56;;;18.36;40.67
28181;BME280;15464;50.988;10.318;2023-05-01T11:47:58;98713.94;;;18.33;36.26
28181;BME280;15464;50.988;10.318;2023-05-01T11:50:33;98718.09;;;18.21;35.88
28181;BME280;15464;50.988;10.318;2023-05-01T11:53:02;98712.56;;;18.23;35.60
28181;BME280;15464;50.988;10.318;2023-05-01T11:55:33;98713.84;;;18.27;35.99
28181;BME280;15464;50.988;10.318;2023-05-01T11:58:00;98711.69;;;17.93;35.46
28181;BME280;15464;50.988;10.318;2023-05-01T12:00:32;98713.94;;;18.04;36.26
28181;BME280;15464;50.988;10.318;2023-05-01T12:03:09;98713.34;;;17.94;37.13
28181;BME280;15464;50.988;10.318;2023-05-01T12:05:39;98705.84;;;17.89;38.09
28181;BME280;15464;50.988;10.318;2023-05-01T12:08:18;98710.97;;;18.13;40.67
28181;BME280;15464;50.988;10.318;2023-05-01T12:13:14;98715.31;;;18.14;40.02
28181;BME280;15464;50.988;10.318;2023-05-01T12:15:44;98710.50;;;18.39;37.96
28181;BME280;15464;50.988;10.318;2023-05-01T12:18:13;98710.59;;;18.31;37.73
28181;BME280;15464;50.988;10.318;2023-05-01T12:20:43;98715.78;;;18.47;36.85
28181;BME280;15464;50.988;10.318;2023-05-01T12:23:11;98714.66;;;18.57;36.19
28181;BME280;15464;50.988;10.318;2023-05-01T12:25:39;98709.66;;;18.53;36.46
28181;BME280;15464;50.988;10.318;2023-05-01T12:28:08;98717.63;;;18.32;36.16
28181;BME280;15464;50.988;10.318;2023-05-01T12:30:36;98709.78;;;18.16;37.01
28181;BME280;15464;50.988;10.318;2023-05-01T12:33:08;98704.94;;;18.26;38.52
28181;BME280;15464;50.988;10.318;2023-05-01T12:35:36;98708.75;;;18.46;37.47
28181;BME280;15464;50.988;10.318;2023-05-01T12:38:13;98708.75;;;18.61;41.20
28181;BME280;15464;50.988;10.318;2023-05-01T12:43:27;98710.00;;;18.50;37.37
28181;BME280;15464;50.988;10.318;2023-05-01T12:45:55;98705.22;;;18.31;38.32
28181;BME280;15464;50.988;10.318;2023-05-01T12:48:23;98701.44;;;18.40;35.75
28181;BME280;15464;50.988;10.318;2023-05-01T12:50:50;98699.50;;;18.34;34.93
28181;BME280;15464;50.988;10.318;2023-05-01T12:53:24;98696.53;;;18.29;35.78
28181;BME280;15464;50.988;10.318;2023-05-01T12:55:56;98694.13;;;18.05;35.70
28181;BME280;15464;50.988;10.318;2023-05-01T12:58:34;98690.78;;;18.03;35.76
28181;BME280;15464;50.988;10.318;2023-05-01T13:01:01;98696.41;;;17.93;37.89
28181;BME280;15464;50.988;10.318;2023-05-01T13:03:28;98685.69;;;18.08;37.25
28181;BME280;15464;50.988;10.318;2023-05-01T13:05:57;98692.81;;;18.16;37.71
28181;BME280;15464;50.988;10.318;2023-05-01T13:08:32;98692.66;;;18.17;38.59
28181;BME280;15464;50.988;10.318;2023-05-01T13:11:02;98689.31;;;18.15;37.69
28181;BME280;15464;50.988;10.318;2023-05-01T13:13:35;98686.44;;;18.02;37.31
28181;BME280;15464;50.988;10.318;2023-05-01T13:18:43;98687.63;;;17.85;37.50
28181;BME280;15464;50.988;10.318;2023-05-01T13:21:11;98689.75;;;17.89;37.91
28181;BME280;15464;50.988;10.318;2023-05-01T13:23:41;98687.72;;;17.91;38.08
28181;BME280;15464;50.988;10.318;2023-05-01T13:26:08;98687.88;;;17.75;37.96
28181;BME280;15464;50.988;10.318;2023-05-01T13:28:43;98686.88;;;17.53;37.76
28181;BME280;15464;50.988;10.318;2023-05-01T13:31:12;98678.91;;;17.45;38.34
28181;BME280;15464;50.988;10.318;2023-05-01T13:33:41;98684.94;;;17.47;37.54
28181;BME280;15464;50.988;10.318;2023-05-01T13:36:12;98682.88;;;17.34;39.35
28181;BME280;15464;50.988;10.318;2023-05-01T13:38:52;98679.06;;;17.29;38.55
28181;BME280;15464;50.988;10.318;2023-05-01T13:41:23;98675.28;;;17.38;38.24
28181;BME280;15464;50.988;10.318;2023-05-01T13:43:55;98680.00;;;17.36;38.10
28181;BME280;15464;50.988;10.318;2023-05-01T13:46:24;98682.63;;;16.99;40.29
28181;BME280;15464;50.988;10.318;2023-05-01T13:48:52;98680.16;;;17.12;41.73
28181;BME280;15464;50.988;10.318;2023-05-01T13:51:21;98671.91;;;17.21;41.85